Time;durP1;ratioP1;P1;durP2;ratioP2;P2;SDS_P1;SDS_P2;PMS_P1;PMS_P2;Temp;Humidity;BMP_temperature;BMP_pressure;BME280_temperature;BME280_humidity;BME280_pressure;Samples;Min_cycle;Max_cycle;Signal;HPM_P1;HPM_P2
2023/12/03 00:01:19;;;;;;;0.70;0.70;;;;;;;;;;6244330;23;20188;-85
2023/12/03 00:03:47;;;;;;;0.70;0.70;;;;;;;;;;6245489;23;20244;-86
2023/12/03 00:06:16;;;;;;;0.70;0.70;;;;;;;;;;6245094;23;20179;-85
2023/12/03 00:08:45;;;;;;;0.80;0.80;;;;;;;;;;6245320;23;20215;-86
2023/12/03 00:11:20;;;;;;;0.80;0.80;;;;;;;;;;6244896;23;20214;-86
2023/12/03 00:13:48;;;;;;;0.70;0.70;;;;;;;;;;6245466;23;20202;-85
2023/12/03 00:16:16;;;;;;;0.80;0.80;;;;;;;;;;6244933;23;20167;-86
2023/12/03 00:18:45;;;;;;;0.80;0.80;;;;;;;;;;6245095;23;20186;-85
2023/12/03 00:21:13;;;;;;;1.00;1.00;;;;;;;;;;6244556;23;20222;-85
2023/12/03 00:23:42;;;;;;;0.70;0.70;;;;;;;;;;6244662;23;20197;-86
2023/12/03 00:26:11;;;;;;;0.80;0.80;;;;;;;;;;6244909;23;20170;-85
2023/12/03 00:28:40;;;;;;;0.80;0.80;;;;;;;;;;6244936;23;20221;-86
2023/12/03 00:31:09;;;;;;;0.70;0.70;;;;;;;;;;6244645;23;20201;-88
2023/12/03 00:33:37;;;;;;;0.80;0.80;;;;;;;;;;6244430;23;20194;-85
2023/12/03 00:36:07;;;;;;;0.80;0.80;;;;;;;;;;6245327;23;20178;-85
2023/12/03 00:38:35;;;;;;;0.80;0.80;;;;;;;;;;6244267;23;20263;-85
2023/12/03 00:41:04;;;;;;;0.80;0.80;;;;;;;;;;6244111;23;20195;-86
2023/12/03 00:43:32;;;;;;;0.80;0.80;;;;;;;;;;6244494;23;20254;-86
2023/12/03 00:46:02;;;;;;;0.80;0.80;;;;;;;;;;6245041;23;20178;-86
2023/12/03 00:48:31;;;;;;;0.70;0.70;;;;;;;;;;6245227;23;20178;-86
2023/12/03 00:50:59;;;;;;;0.80;0.80;;;;;;;;;;6244264;23;20217;-85
2023/12/03 00:53:28;;;;;;;0.80;0.80;;;;;;;;;;6244866;23;20181;-86
2023/12/03 00:55:56;;;;;;;2.20;2.20;;;;;;;;;;6244274;23;20175;-86
2023/12/03 00:58:25;;;;;;;0.80;0.80;;;;;;;;;;6244725;23;20191;-85
2023/12/03 01:00:53;;;;;;;0.80;0.80;;;;;;;;;;6244229;23;20179;-86
2023/12/03 01:03:23;;;;;;;0.80;0.80;;;;;;;;;;6244246;23;20173;-85
2023/12/03 01:05:52;;;;;;;0.80;0.80;;;;;;;;;;6244739;23;20197;-85
2023/12/03 01:08:20;;;;;;;0.70;0.70;;;;;;;;;;6244403;23;20174;-86
2023/12/03 01:10:48;;;;;;;0.80;0.80;;;;;;;;;;6243843;23;20176;-85
2023/12/03 01:13:17;;;;;;;0.80;0.80;;;;;;;;;;6244772;23;20205;-86
2023/12/03 01:15:45;;;;;;;0.77;0.77;;;;;;;;;;6245084;23;20186;-85
2023/12/03 01:18:14;;;;;;;0.80;0.80;;;;;;;;;;6244689;23;20178;-85
2023/12/03 01:20:44;;;;;;;0.80;0.80;;;;;;;;;;6244141;23;20178;-85
2023/12/03 01:23:13;;;;;;;0.80;0.80;;;;;;;;;;6244412;23;20198;-85
2023/12/03 01:25:41;;;;;;;0.90;0.90;;;;;;;;;;6244342;23;20170;-86
2023/12/03 01:28:09;;;;;;;0.80;0.80;;;;;;;;;;6244652;23;20173;-85
2023/12/03 01:30:38;;;;;;;0.80;0.80;;;;;;;;;;6243864;23;20178;-86
2023/12/03 01:33:06;;;;;;;0.80;0.80;;;;;;;;;;6243975;23;20222;-82
2023/12/03 01:35:35;;;;;;;0.80;0.80;;;;;;;;;;6243700;23;20170;-82
2023/12/03 01:38:06;;;;;;;0.80;0.80;;;;;;;;;;6243605;23;20183;-82
2023/12/03 01:40:35;;;;;;;0.80;0.80;;;;;;;;;;6243383;23;20173;-82
2023/12/03 01:43:04;;;;;;;0.80;0.80;;;;;;;;;;6244089;23;20335;-82
2023/12/03 01:45:33;;;;;;;0.80;0.80;;;;;;;;;;6243935;23;20189;-86
2023/12/03 01:48:01;;;;;;;0.80;0.80;;;;;;;;;;6244695;23;20334;-86
2023/12/03 01:50:30;;;;;;;0.80;0.80;;;;;;;;;;6243400;23;20170;-85
2023/12/03 01:52:58;;;;;;;0.80;0.80;;;;;;;;;;6244630;23;20222;-86
2023/12/03 01:55:28;;;;;;;0.77;0.77;;;;;;;;;;6243825;23;20166;-85
2023/12/03 01:57:57;;;;;;;0.80;0.80;;;;;;;;;;6243554;23;20171;-86
2023/12/03 02:00:26;;;;;;;0.80;0.80;;;;;;;;;;6243573;23;20178;-85
2023/12/03 02:02:54;;;;;;;0.80;0.80;;;;;;;;;;6243957;23;20288;-86
2023/12/03 02:05:23;;;;;;;0.90;0.90;;;;;;;;;;6244148;23;20202;-86
2023/12/03 02:07:51;;;;;;;0.90;0.90;;;;;;;;;;6243892;23;20206;-85
2023/12/03 02:10:19;;;;;;;0.80;0.80;;;;;;;;;;6243392;23;20182;-86
2023/12/03 02:12:49;;;;;;;0.80;0.80;;;;;;;;;;6244097;23;20178;-86
2023/12/03 02:15:18;;;;;;;0.90;0.90;;;;;;;;;;6244467;23;20181;-86
2023/12/03 02:17:47;;;;;;;0.80;0.80;;;;;;;;;;6243385;23;20177;-86
2023/12/03 02:20:15;;;;;;;0.80;0.80;;;;;;;;;;6242993;23;20170;-85
2023/12/03 02:22:59;;;;;;;0.80;0.80;;;;;;;;;;6243321;23;20197;-86
2023/12/03 02:25:27;;;;;;;0.80;0.80;;;;;;;;;;6243599;23;20269;-85
2023/12/03 02:27:56;;;;;;;0.80;0.80;;;;;;;;;;6243435;23;20185;-86
2023/12/03 02:30:24;;;;;;;0.80;0.80;;;;;;;;;;6243226;23;20178;-85
2023/12/03 02:32:53;;;;;;;0.80;0.80;;;;;;;;;;6243300;23;20213;-85
2023/12/03 02:35:21;;;;;;;0.90;0.90;;;;;;;;;;6243226;23;20170;-85
2023/12/03 02:37:51;;;;;;;0.80;0.80;;;;;;;;;;6242555;23;20170;-85
2023/12/03 02:40:20;;;;;;;0.90;0.90;;;;;;;;;;6243110;23;20170;-85
2023/12/03 02:42:48;;;;;;;0.80;0.80;;;;;;;;;;6243185;23;20249;-85
2023/12/03 02:45:17;;;;;;;0.80;0.80;;;;;;;;;;6243452;23;20182;-85
2023/12/03 02:47:45;;;;;;;0.90;0.90;;;;;;;;;;6243638;23;20236;-85
2023/12/03 02:50:14;;;;;;;0.80;0.80;;;;;;;;;;6243025;23;20181;-85
2023/12/03 02:52:42;;;;;;;0.80;0.80;;;;;;;;;;6242980;23;20220;-86
2023/12/03 02:55:12;;;;;;;0.90;0.90;;;;;;;;;;6243411;23;20174;-86
2023/12/03 02:57:40;;;;;;;0.90;0.90;;;;;;;;;;6245160;23;20285;-85
2023/12/03 03:00:10;;;;;;;0.80;0.80;;;;;;;;;;6245169;23;20167;-85
2023/12/03 03:02:38;;;;;;;0.80;0.80;;;;;;;;;;6245424;23;20202;-85
2023/12/03 03:05:07;;;;;;;0.90;0.90;;;;;;;;;;6245110;23;20177;-85
2023/12/03 03:07:36;;;;;;;0.80;0.80;;;;;;;;;;6244822;23;20177;-86
2023/12/03 03:10:04;;;;;;;0.87;0.87;;;;;;;;;;6244595;23;20174;-85
2023/12/03 03:12:34;;;;;;;0.80;0.80;;;;;;;;;;6245532;23;20170;-85
2023/12/03 03:15:03;;;;;;;0.80;0.80;;;;;;;;;;6245141;23;20170;-85
2023/12/03 03:17:31;;;;;;;0.80;0.80;;;;;;;;;;6245515;23;20233;-84
2023/12/03 03:20:00;;;;;;;0.80;0.80;;;;;;;;;;6244687;23;20170;-85
2023/12/03 03:22:29;;;;;;;0.80;0.80;;;;;;;;;;6245435;22;20181;-85
2023/12/03 03:24:57;;;;;;;0.80;0.80;;;;;;;;;;6244992;23;20165;-85
2023/12/03 03:27:26;;;;;;;0.83;0.83;;;;;;;;;;6244763;23;20218;-85
2023/12/03 03:29:56;;;;;;;0.80;0.80;;;;;;;;;;6244310;23;20170;-85
2023/12/03 03:32:24;;;;;;;0.80;0.80;;;;;;;;;;6245256;23;20184;-85
2023/12/03 03:34:52;;;;;;;0.90;0.90;;;;;;;;;;6244963;23;20204;-85
2023/12/03 03:37:21;;;;;;;0.90;0.90;;;;;;;;;;6244670;23;20170;-85
2023/12/03 03:39:49;;;;;;;0.80;0.80;;;;;;;;;;6243921;23;20221;-85
2023/12/03 03:42:18;;;;;;;0.90;0.90;;;;;;;;;;6244987;23;20227;-85
2023/12/03 03:44:46;;;;;;;0.90;0.90;;;;;;;;;;6244762;23;20322;-85
2023/12/03 03:47:16;;;;;;;0.90;0.90;;;;;;;;;;6244888;23;20170;-85
2023/12/03 03:49:45;;;;;;;0.80;0.80;;;;;;;;;;6243586;23;20169;-85
2023/12/03 03:52:13;;;;;;;0.90;0.90;;;;;;;;;;6244888;23;20217;-85
2023/12/03 03:54:42;;;;;;;43.87;41.63;;;;;;;;;;6244791;23;20173;-85
2023/12/03 03:57:10;;;;;;;0.90;0.90;;;;;;;;;;6245438;22;20166;-85
2023/12/03 03:59:39;;;;;;;0.90;0.90;;;;;;;;;;6243738;23;20169;-85
2023/12/03 04:02:08;;;;;;;0.90;0.90;;;;;;;;;;6244674;23;20197;-85
2023/12/03 04:04:38;;;;;;;0.90;0.90;;;;;;;;;;6244565;23;20247;-85
2023/12/03 04:07:06;;;;;;;0.80;0.80;;;;;;;;;;6244823;23;20177;-85
2023/12/03 04:09:35;;;;;;;0.80;0.80;;;;;;;;;;6244364;22;20177;-85
2023/12/03 04:12:03;;;;;;;0.80;0.80;;;;;;;;;;6244491;23;20166;-85
2023/12/03 04:14:32;;;;;;;0.90;0.90;;;;;;;;;;6244085;23;20165;-85
2023/12/03 04:17:00;;;;;;;0.80;0.80;;;;;;;;;;6244268;23;20193;-85
2023/12/03 04:19:29;;;;;;;0.80;0.80;;;;;;;;;;6243784;23;20177;-85
2023/12/03 04:21:59;;;;;;;0.80;0.80;;;;;;;;;;6244557;23;20273;-86
2023/12/03 04:24:27;;;;;;;0.80;0.80;;;;;;;;;;6244042;23;20193;-86
2023/12/03 04:26:56;;;;;;;0.80;0.80;;;;;;;;;;6244670;23;20244;-86
2023/12/03 04:29:24;;;;;;;0.83;0.83;;;;;;;;;;6243828;23;20182;-86
2023/12/03 04:31:53;;;;;;;0.80;0.80;;;;;;;;;;6244401;23;20170;-85
2023/12/03 04:34:21;;;;;;;0.80;0.80;;;;;;;;;;6244463;23;20244;-86
2023/12/03 04:36:50;;;;;;;0.80;0.80;;;;;;;;;;6244540;23;20178;-86
2023/12/03 04:39:20;;;;;;;0.80;0.80;;;;;;;;;;6243642;23;20232;-86
2023/12/03 04:41:48;;;;;;;0.80;0.80;;;;;;;;;;6244857;23;20178;-86
2023/12/03 04:44:17;;;;;;;0.80;0.80;;;;;;;;;;6244639;23;20243;-85
2023/12/03 04:46:45;;;;;;;0.80;0.80;;;;;;;;;;6244139;23;20174;-85
2023/12/03 04:49:13;;;;;;;0.80;0.80;;;;;;;;;;6244004;23;20228;-85
2023/12/03 04:51:42;;;;;;;0.80;0.80;;;;;;;;;;6244127;23;20192;-86
2023/12/03 04:54:11;;;;;;;0.80;0.80;;;;;;;;;;6244600;23;20262;-86
2023/12/03 04:56:41;;;;;;;0.90;0.90;;;;;;;;;;6244078;23;20173;-86
2023/12/03 04:59:09;;;;;;;0.90;0.90;;;;;;;;;;6243547;23;20178;-86
2023/12/03 05:01:38;;;;;;;0.90;0.90;;;;;;;;;;6243980;23;20170;-85
2023/12/03 05:04:06;;;;;;;0.90;0.90;;;;;;;;;;6244106;23;20228;-86
2023/12/03 05:06:35;;;;;;;9.00;8.33;;;;;;;;;;6244132;23;20245;-86
2023/12/03 05:09:04;;;;;;;0.80;0.80;;;;;;;;;;6243870;23;20178;-85
2023/12/03 05:11:32;;;;;;;0.80;0.80;;;;;;;;;;6243967;23;20178;-86
2023/12/03 05:14:02;;;;;;;0.90;0.90;;;;;;;;;;6244268;23;20166;-85
2023/12/03 05:16:30;;;;;;;0.90;0.90;;;;;;;;;;6244077;23;20199;-85
2023/12/03 05:18:59;;;;;;;0.90;0.90;;;;;;;;;;6243418;23;20173;-85
2023/12/03 05:21:27;;;;;;;0.90;0.90;;;;;;;;;;6244360;23;20366;-85
2023/12/03 05:23:56;;;;;;;0.90;0.90;;;;;;;;;;6243356;23;20221;-86
2023/12/03 05:26:24;;;;;;;0.80;0.80;;;;;;;;;;6243459;23;20193;-86
2023/12/03 05:28:53;;;;;;;0.80;0.80;;;;;;;;;;6243462;23;20229;-85
2023/12/03 05:31:22;;;;;;;0.90;0.90;;;;;;;;;;6243777;23;20165;-85
2023/12/03 05:33:51;;;;;;;0.80;0.80;;;;;;;;;;6243886;23;20199;-86
2023/12/03 05:36:22;;;;;;;0.90;0.90;;;;;;;;;;6243577;23;20170;-85
2023/12/03 05:38:52;;;;;;;0.80;0.80;;;;;;;;;;6243016;22;20201;-86
2023/12/03 05:41:20;;;;;;;0.90;0.90;;;;;;;;;;6243894;23;20194;-86
2023/12/03 05:43:49;;;;;;;0.90;0.90;;;;;;;;;;6243788;23;20205;-85
2023/12/03 05:46:18;;;;;;;0.90;0.90;;;;;;;;;;6243813;23;20257;-85
2023/12/03 05:48:48;;;;;;;0.90;0.90;;;;;;;;;;6243113;23;20174;-85
2023/12/03 05:51:16;;;;;;;0.90;0.90;;;;;;;;;;6243517;23;20177;-83
2023/12/03 05:53:45;;;;;;;0.90;0.90;;;;;;;;;;6243599;23;20273;-83
2023/12/03 05:56:13;;;;;;;0.90;0.90;;;;;;;;;;6244277;23;20228;-83
2023/12/03 05:58:42;;;;;;;0.90;0.90;;;;;;;;;;6243221;23;20224;-83
2023/12/03 06:01:10;;;;;;;0.90;0.90;;;;;;;;;;6243619;23;20432;-83
2023/12/03 06:03:39;;;;;;;0.87;0.87;;;;;;;;;;6243820;23;20264;-83
2023/12/03 06:06:10;;;;;;;0.90;0.90;;;;;;;;;;6243833;23;20174;-84
2023/12/03 06:08:38;;;;;;;0.90;0.90;;;;;;;;;;6243374;23;20169;-83
2023/12/03 06:11:07;;;;;;;0.90;0.90;;;;;;;;;;6243427;23;20183;-84
2023/12/03 06:13:35;;;;;;;0.80;0.80;;;;;;;;;;6244389;23;20181;-83
2023/12/03 06:16:06;;;;;;;22.53;21.47;;;;;;;;;;6243365;23;20175;-83
2023/12/03 06:18:35;;;;;;;0.90;0.90;;;;;;;;;;6243334;22;20185;-83
2023/12/03 06:21:04;;;;;;;0.90;0.90;;;;;;;;;;6243484;23;20176;-84
2023/12/03 06:23:34;;;;;;;0.90;0.90;;;;;;;;;;6243514;23;20177;-84
2023/12/03 06:26:02;;;;;;;1.00;1.00;;;;;;;;;;6243274;23;20213;-85
2023/12/03 06:28:31;;;;;;;0.90;0.90;;;;;;;;;;6242888;23;20236;-85
2023/12/03 06:30:59;;;;;;;0.90;0.90;;;;;;;;;;6243299;23;20178;-85
2023/12/03 06:33:37;;;;;;;0.90;0.90;;;;;;;;;;6243790;23;20220;-85
2023/12/03 06:36:06;;;;;;;0.80;0.80;;;;;;;;;;6242960;23;20165;-85
2023/12/03 06:38:36;;;;;;;0.90;0.90;;;;;;;;;;6242299;23;20264;-85
2023/12/03 06:41:05;;;;;;;0.90;0.90;;;;;;;;;;6243478;23;20182;-85
2023/12/03 06:43:33;;;;;;;0.97;0.97;;;;;;;;;;6243647;23;20170;-85
2023/12/03 06:46:02;;;;;;;1.20;1.20;;;;;;;;;;6243128;23;20210;-85
2023/12/03 06:48:30;;;;;;;0.90;0.90;;;;;;;;;;6242600;23;20178;-85
2023/12/03 06:50:59;;;;;;;0.90;0.90;;;;;;;;;;6243480;23;20166;-85
2023/12/03 06:53:27;;;;;;;0.93;0.93;;;;;;;;;;6243939;23;20196;-85
2023/12/03 06:55:57;;;;;;;1.00;1.00;;;;;;;;;;6243243;23;20176;-85
2023/12/03 06:58:26;;;;;;;0.90;0.90;;;;;;;;;;6242638;23;20234;-85
2023/12/03 07:00:54;;;;;;;0.90;0.90;;;;;;;;;;6243292;23;20169;-85
2023/12/03 07:03:23;;;;;;;0.90;0.90;;;;;;;;;;6243687;23;20253;-85
2023/12/03 07:05:51;;;;;;;0.90;0.90;;;;;;;;;;6242893;22;20194;-84
2023/12/03 07:08:20;;;;;;;0.90;0.90;;;;;;;;;;6243165;23;20231;-83
2023/12/03 07:10:48;;;;;;;0.90;0.90;;;;;;;;;;6243196;23;20251;-84
2023/12/03 07:13:18;;;;;;;1.00;1.00;;;;;;;;;;6243027;23;20174;-84
2023/12/03 07:15:46;;;;;;;1.00;1.00;;;;;;;;;;6242546;23;20173;-84
2023/12/03 07:18:15;;;;;;;0.93;0.93;;;;;;;;;;6243229;23;20201;-83
2023/12/03 07:20:44;;;;;;;0.90;0.90;;;;;;;;;;6243364;23;20170;-84
2023/12/03 07:23:12;;;;;;;0.90;0.90;;;;;;;;;;6243529;23;20173;-83
2023/12/03 07:25:41;;;;;;;0.87;0.87;;;;;;;;;;6243231;23;20207;-84
2023/12/03 07:28:10;;;;;;;0.90;0.90;;;;;;;;;;6242770;23;20213;-85
2023/12/03 07:30:41;;;;;;;1.00;1.00;;;;;;;;;;6243634;23;20185;-84
2023/12/03 07:33:10;;;;;;;0.90;0.90;;;;;;;;;;6243498;23;20243;-84
2023/12/03 07:35:38;;;;;;;1.00;1.00;;;;;;;;;;6243172;23;20158;-84
2023/12/03 07:38:07;;;;;;;0.90;0.90;;;;;;;;;;6242921;23;20223;-84
2023/12/03 07:40:36;;;;;;;1.00;1.00;;;;;;;;;;6243317;22;20325;-84
2023/12/03 07:43:04;;;;;;;1.00;1.00;;;;;;;;;;6244507;23;20182;-85
2023/12/03 07:45:33;;;;;;;0.90;0.90;;;;;;;;;;6245297;23;20197;-85
2023/12/03 07:48:03;;;;;;;0.93;0.93;;;;;;;;;;6244930;23;20186;-85
2023/12/03 07:50:31;;;;;;;6.43;6.23;;;;;;;;;;6245421;23;20178;-85
2023/12/03 07:53:00;;;;;;;1.00;1.00;;;;;;;;;;6245430;23;20181;-85
2023/12/03 07:55:28;;;;;;;3.30;3.10;;;;;;;;;;6244687;23;20181;-85
2023/12/03 07:57:57;;;;;;;4.77;4.67;;;;;;;;;;6244451;23;20231;-85
2023/12/03 08:00:25;;;;;;;1.00;1.00;;;;;;;;;;6245300;23;20204;-84
2023/12/03 08:02:53;;;;;;;0.97;0.97;;;;;;;;;;6245110;23;20204;-85
2023/12/03 08:05:23;;;;;;;0.90;0.90;;;;;;;;;;6244716;23;20258;-85
2023/12/03 08:07:52;;;;;;;1.00;1.00;;;;;;;;;;6244548;23;20174;-85
2023/12/03 08:10:20;;;;;;;2.00;2.00;;;;;;;;;;6245197;23;20183;-85
2023/12/03 08:12:49;;;;;;;1.00;1.00;;;;;;;;;;6245295;23;20178;-85
2023/12/03 08:15:17;;;;;;;0.93;0.93;;;;;;;;;;6244570;23;20261;-84
2023/12/03 08:17:46;;;;;;;3.47;3.37;;;;;;;;;;6244473;23;20174;-85
2023/12/03 08:20:15;;;;;;;2.83;2.73;;;;;;;;;;6244760;23;20170;-85
2023/12/03 08:22:44;;;;;;;1.00;1.00;;;;;;;;;;6245272;23;20197;-85
2023/12/03 08:25:14;;;;;;;1.43;1.43;;;;;;;;;;6244367;23;20185;-85
2023/12/03 08:27:43;;;;;;;0.90;0.90;;;;;;;;;;6244787;23;20235;-85
2023/12/03 08:30:12;;;;;;;0.90;0.90;;;;;;;;;;6245161;23;20204;-85
2023/12/03 08:32:40;;;;;;;0.90;0.90;;;;;;;;;;6244977;23;20209;-85
2023/12/03 08:35:09;;;;;;;3.87;3.77;;;;;;;;;;6244994;23;20184;-85
2023/12/03 08:37:37;;;;;;;0.90;0.90;;;;;;;;;;6244254;23;20173;-85
2023/12/03 08:40:09;;;;;;;2.60;2.60;;;;;;;;;;6244646;23;20208;-85
2023/12/03 08:42:39;;;;;;;1.00;1.00;;;;;;;;;;6245234;23;20220;-84
2023/12/03 08:45:07;;;;;;;1.00;1.00;;;;;;;;;;6244616;23;20180;-85
2023/12/03 08:47:36;;;;;;;1.00;1.00;;;;;;;;;;6244512;22;20179;-85
2023/12/03 08:50:05;;;;;;;1.57;1.57;;;;;;;;;;6244694;23;20227;-85
2023/12/03 08:52:34;;;;;;;1.00;1.00;;;;;;;;;;6244936;23;20184;-84
2023/12/03 08:55:04;;;;;;;0.90;0.90;;;;;;;;;;6244358;23;20181;-85
2023/12/03 08:57:36;;;;;;;0.90;0.90;;;;;;;;;;6244222;23;20168;-84
2023/12/03 09:00:07;;;;;;;0.90;0.90;;;;;;;;;;6244698;23;20177;-85
2023/12/03 09:02:36;;;;;;;26.07;3.83;;;;;;;;;;6244939;23;20228;-85
2023/12/03 09:05:04;;;;;;;0.90;0.90;;;;;;;;;;6244084;23;20174;-85
2023/12/03 09:07:33;;;;;;;1.83;1.83;;;;;;;;;;6243499;23;20213;-85
2023/12/03 09:10:01;;;;;;;1.10;1.10;;;;;;;;;;6244059;23;20215;-85
2023/12/03 09:12:30;;;;;;;0.93;0.93;;;;;;;;;;6244847;23;20173;-85
2023/12/03 09:15:00;;;;;;;1.20;1.20;;;;;;;;;;6244076;23;20264;-85
2023/12/03 09:17:29;;;;;;;1.00;1.00;;;;;;;;;;6244076;23;20277;-85
2023/12/03 09:19:58;;;;;;;3.77;3.67;;;;;;;;;;6244101;23;20173;-85
2023/12/03 09:22:26;;;;;;;5.33;5.13;;;;;;;;;;6244629;23;20178;-85
2023/12/03 09:24:55;;;;;;;11.80;3.57;;;;;;;;;;6243694;23;20169;-85
2023/12/03 09:27:23;;;;;;;1.03;1.03;;;;;;;;;;6243810;23;20194;-85
2023/12/03 09:29:52;;;;;;;4.97;4.50;;;;;;;;;;6243861;23;20224;-85
2023/12/03 09:32:21;;;;;;;1.47;1.47;;;;;;;;;;6244560;23;20249;-85
2023/12/03 09:34:50;;;;;;;1.77;1.77;;;;;;;;;;6243539;23;20197;-84
2023/12/03 09:37:18;;;;;;;1.43;1.43;;;;;;;;;;6243127;23;20173;-85
2023/12/03 09:39:47;;;;;;;2.00;2.00;;;;;;;;;;6243929;23;20197;-85
2023/12/03 09:42:19;;;;;;;1.40;1.40;;;;;;;;;;6243994;23;20169;-85
2023/12/03 09:44:49;;;;;;;1.40;1.40;;;;;;;;;;6243249;23;20169;-86
2023/12/03 09:47:18;;;;;;;1.67;1.67;;;;;;;;;;6243474;23;20190;-85
2023/12/03 09:49:49;;;;;;;13.40;12.10;;;;;;;;;;6243993;23;20173;-85
2023/12/03 09:52:19;;;;;;;0.90;0.90;;;;;;;;;;6244128;22;20170;-85
2023/12/03 09:54:48;;;;;;;0.90;0.90;;;;;;;;;;6243800;23;20273;-85
2023/12/03 09:57:17;;;;;;;1.07;1.07;;;;;;;;;;6244736;23;20170;-85
2023/12/03 09:59:47;;;;;;;1.00;1.00;;;;;;;;;;6244957;23;20198;-85
2023/12/03 10:02:17;;;;;;;1.73;1.73;;;;;;;;;;6246706;23;20190;-85
2023/12/03 10:04:45;;;;;;;3.10;3.00;;;;;;;;;;6244612;23;20238;-85
2023/12/03 10:07:16;;;;;;;1.67;1.57;;;;;;;;;;6245142;23;20466;-85
2023/12/03 10:09:47;;;;;;;0.97;0.97;;;;;;;;;;6245526;23;20166;-85
2023/12/03 10:12:18;;;;;;;1.53;1.53;;;;;;;;;;6245610;23;20204;-85
2023/12/03 10:14:49;;;;;;;5.23;3.13;;;;;;;;;;6244799;23;20183;-85
2023/12/03 10:17:21;;;;;;;2.27;2.27;;;;;;;;;;6244337;23;20172;-86
2023/12/03 10:19:49;;;;;;;1.70;1.70;;;;;;;;;;6244970;23;20170;-86
2023/12/03 10:22:31;;;;;;;1.00;1.00;;;;;;;;;;6245211;23;20175;-86
2023/12/03 10:24:59;;;;;;;1.00;1.00;;;;;;;;;;6244632;23;20227;-85
2023/12/03 10:27:30;;;;;;;1.00;1.00;;;;;;;;;;6244940;23;20190;-85
2023/12/03 10:29:59;;;;;;;0.90;0.90;;;;;;;;;;6245576;23;20207;-86
2023/12/03 10:32:28;;;;;;;13.93;13.20;;;;;;;;;;6245422;23;20174;-85
2023/12/03 10:34:58;;;;;;;0.93;0.93;;;;;;;;;;6244736;22;20172;-85
2023/12/03 10:37:28;;;;;;;0.90;0.90;;;;;;;;;;6245034;23;20178;-85
2023/12/03 10:39:57;;;;;;;1.00;1.00;;;;;;;;;;6245075;23;20203;-85
2023/12/03 10:42:26;;;;;;;1.77;1.77;;;;;;;;;;6245107;23;20174;-85
2023/12/03 10:44:55;;;;;;;0.90;0.90;;;;;;;;;;6241951;23;20179;-86
2023/12/03 10:47:24;;;;;;;1.87;1.87;;;;;;;;;;6243477;23;20258;-86
2023/12/03 10:49:54;;;;;;;2.70;2.50;;;;;;;;;;6243537;23;20240;-86
2023/12/03 10:52:22;;;;;;;1.20;1.20;;;;;;;;;;6244167;23;20176;-86
2023/12/03 10:54:52;;;;;;;0.90;0.90;;;;;;;;;;6243683;23;20174;-86
2023/12/03 10:57:21;;;;;;;0.90;0.90;;;;;;;;;;6243024;23;20215;-86
2023/12/03 10:59:55;;;;;;;0.90;0.90;;;;;;;;;;6244350;23;20177;-86
2023/12/03 11:02:27;;;;;;;0.90;0.90;;;;;;;;;;6243935;23;20214;-86
2023/12/03 11:04:58;;;;;;;1.00;1.00;;;;;;;;;;6243299;23;20178;-86
2023/12/03 11:07:30;;;;;;;0.90;0.90;;;;;;;;;;6243182;23;20185;-86
2023/12/03 11:10:00;;;;;;;3.57;3.47;;;;;;;;;;6245282;23;20179;-86
2023/12/03 11:12:28;;;;;;;1.00;1.00;;;;;;;;;;6244038;23;20170;-86
2023/12/03 11:14:57;;;;;;;2.40;2.40;;;;;;;;;;6243718;23;20175;-86
2023/12/03 11:17:28;;;;;;;1.10;1.10;;;;;;;;;;6244938;23;20217;-85
2023/12/03 11:19:59;;;;;;;1.00;1.00;;;;;;;;;;6245903;23;20173;-86
2023/12/03 11:22:32;;;;;;;1.23;1.23;;;;;;;;;;6246624;23;20174;-86
2023/12/03 11:25:05;;;;;;;1.00;1.00;;;;;;;;;;6245002;23;20173;-86
2023/12/03 11:27:34;;;;;;;1.10;1.10;;;;;;;;;;6246058;23;20210;-86
2023/12/03 11:30:04;;;;;;;1.10;1.10;;;;;;;;;;6246936;23;20182;-86
2023/12/03 11:32:33;;;;;;;1.53;1.53;;;;;;;;;;6246214;23;20175;-86
2023/12/03 11:35:14;;;;;;;1.00;1.00;;;;;;;;;;6245552;23;20192;-86
2023/12/03 11:37:44;;;;;;;5.03;4.87;;;;;;;;;;6245243;23;20177;-86
2023/12/03 11:40:15;;;;;;;1.00;1.00;;;;;;;;;;6246214;23;20174;-86
2023/12/03 11:42:44;;;;;;;1.00;1.00;;;;;;;;;;6248703;23;20226;-85
2023/12/03 11:45:23;;;;;;;1.47;1.47;;;;;;;;;;6246843;23;20202;-85
2023/12/03 11:48:08;;;;;;;3.47;3.27;;;;;;;;;;6246581;23;20222;-86
2023/12/03 11:50:38;;;;;;;1.00;1.00;;;;;;;;;;6248050;23;20186;-85
2023/12/03 11:53:07;;;;;;;0.90;0.90;;;;;;;;;;6247514;23;20179;-85
2023/12/03 11:55:39;;;;;;;1.00;1.00;;;;;;;;;;6246521;23;20184;-85
2023/12/03 11:58:08;;;;;;;0.90;0.90;;;;;;;;;;6247287;23;20221;-85
2023/12/03 12:00:36;;;;;;;1.00;1.00;;;;;;;;;;6247706;23;20174;-85
2023/12/03 12:03:06;;;;;;;1.00;1.00;;;;;;;;;;6248118;23;20227;-85
2023/12/03 12:05:35;;;;;;;0.90;0.90;;;;;;;;;;6246090;23;20180;-85
2023/12/03 12:08:04;;;;;;;4.70;4.53;;;;;;;;;;6248165;23;20205;-84
2023/12/03 12:10:33;;;;;;;0.93;0.93;;;;;;;;;;6247338;23;20202;-85
2023/12/03 12:13:04;;;;;;;1.00;1.00;;;;;;;;;;6247300;23;20206;-85
2023/12/03 12:15:32;;;;;;;1.20;1.20;;;;;;;;;;6246212;23;20181;-85
2023/12/03 12:18:02;;;;;;;0.97;0.97;;;;;;;;;;6247223;23;20220;-86
2023/12/03 12:20:32;;;;;;;1.20;1.20;;;;;;;;;;6247120;23;20180;-85
2023/12/03 12:23:01;;;;;;;0.90;0.90;;;;;;;;;;6247313;23;20179;-84
2023/12/03 12:25:30;;;;;;;2.70;2.60;;;;;;;;;;6245928;23;20170;-85
2023/12/03 12:27:58;;;;;;;2.43;2.40;;;;;;;;;;6246976;23;20198;-86
2023/12/03 12:30:29;;;;;;;1.00;1.00;;;;;;;;;;6246984;23;20197;-85
2023/12/03 12:33:03;;;;;;;2.23;2.13;;;;;;;;;;6247140;23;20407;-86
2023/12/03 12:35:33;;;;;;;1.00;1.00;;;;;;;;;;6246360;23;20199;-85
2023/12/03 12:38:02;;;;;;;7.33;7.13;;;;;;;;;;6246609;23;20182;-85
2023/12/03 12:40:31;;;;;;;0.90;0.90;;;;;;;;;;6247179;23;20167;-85
2023/12/03 12:43:04;;;;;;;1.00;1.00;;;;;;;;;;6246997;23;20179;-85
2023/12/03 12:45:34;;;;;;;0.90;0.90;;;;;;;;;;6246149;23;20177;-85
2023/12/03 12:48:03;;;;;;;1.30;1.30;;;;;;;;;;6246025;23;20282;-85
2023/12/03 12:50:35;;;;;;;4.23;4.13;;;;;;;;;;6246249;23;20196;-85
2023/12/03 12:53:06;;;;;;;1.00;1.00;;;;;;;;;;6246620;23;20170;-85
2023/12/03 12:55:35;;;;;;;1.20;1.20;;;;;;;;;;6245958;23;20171;-85
2023/12/03 12:58:05;;;;;;;0.90;0.90;;;;;;;;;;6247019;23;20178;-85
2023/12/03 13:00:35;;;;;;;1.00;1.00;;;;;;;;;;6246591;23;20233;-85
2023/12/03 13:03:03;;;;;;;1.03;1.03;;;;;;;;;;6246697;23;20190;-85
2023/12/03 13:05:32;;;;;;;2.77;2.70;;;;;;;;;;6245567;23;20196;-85
2023/12/03 13:08:00;;;;;;;1.53;1.53;;;;;;;;;;6246353;23;20221;-85
2023/12/03 13:10:32;;;;;;;5.03;4.83;;;;;;;;;;6247143;23;20180;-85
2023/12/03 13:13:01;;;;;;;1.00;1.00;;;;;;;;;;6246630;23;20172;-85
2023/12/03 13:15:29;;;;;;;0.97;0.97;;;;;;;;;;6246278;23;20210;-85
2023/12/03 13:18:00;;;;;;;1.00;1.00;;;;;;;;;;6246862;23;20176;-85
2023/12/03 13:20:43;;;;;;;1.00;1.00;;;;;;;;;;6247449;23;20172;-85
2023/12/03 13:23:12;;;;;;;2.20;2.20;;;;;;;;;;6246401;23;20359;-85
2023/12/03 13:25:40;;;;;;;0.97;0.97;;;;;;;;;;6245734;23;20172;-85
2023/12/03 13:28:09;;;;;;;1.63;1.63;;;;;;;;;;6246733;23;20188;-85
2023/12/03 13:30:37;;;;;;;1.00;1.00;;;;;;;;;;6246259;23;20226;-85
2023/12/03 13:33:07;;;;;;;0.90;0.90;;;;;;;;;;6246499;23;20200;-85
2023/12/03 13:35:36;;;;;;;1.00;1.00;;;;;;;;;;6246646;23;20190;-85
2023/12/03 13:38:05;;;;;;;0.90;0.90;;;;;;;;;;6247156;23;20168;-86
2023/12/03 13:40:33;;;;;;;1.90;1.90;;;;;;;;;;6246946;23;20177;-86
2023/12/03 13:43:03;;;;;;;0.90;0.90;;;;;;;;;;6245783;23;20176;-86
2023/12/03 13:45:32;;;;;;;1.00;1.00;;;;;;;;;;6245132;23;20180;-86
2023/12/03 13:48:01;;;;;;;3.30;3.20;;;;;;;;;;6244973;23;20228;-86
2023/12/03 13:50:31;;;;;;;1.00;1.00;;;;;;;;;;6245421;23;20180;-86
2023/12/03 13:52:59;;;;;;;1.20;1.20;;;;;;;;;;6244974;23;20183;-86
2023/12/03 13:55:28;;;;;;;1.53;1.53;;;;;;;;;;6243764;23;20176;-86
2023/12/03 13:57:56;;;;;;;1.00;1.00;;;;;;;;;;6244538;23;20190;-87
2023/12/03 14:00:25;;;;;;;1.00;1.00;;;;;;;;;;6244411;23;20217;-86
2023/12/03 14:02:54;;;;;;;1.30;1.30;;;;;;;;;;6244604;23;20196;-87
2023/12/03 14:05:22;;;;;;;1.53;1.53;;;;;;;;;;6243405;23;20254;-87
2023/12/03 14:07:54;;;;;;;19.47;17.37;;;;;;;;;;6244867;23;20260;-86
2023/12/03 14:10:23;;;;;;;22.47;16.17;;;;;;;;;;6244738;22;20189;-86
2023/12/03 14:12:52;;;;;;;23.67;15.83;;;;;;;;;;6246185;22;20191;-87
2023/12/03 14:15:21;;;;;;;21.83;16.73;;;;;;;;;;6243609;22;20185;-86
2023/12/03 14:17:50;;;;;;;20.23;14.70;;;;;;;;;;6243801;22;20167;-86
2023/12/03 14:20:18;;;;;;;22.43;16.13;;;;;;;;;;6243798;22;20164;-86
2023/12/03 14:22:47;;;;;;;15.97;11.27;;;;;;;;;;6243661;22;20177;-86
2023/12/03 14:25:17;;;;;;;20.40;16.00;;;;;;;;;;6243271;22;20227;-86
2023/12/03 14:27:46;;;;;;;21.50;17.63;;;;;;;;;;6244063;22;20194;-86
2023/12/03 14:30:14;;;;;;;17.77;12.10;;;;;;;;;;6244257;22;20198;-86
2023/12/03 14:32:43;;;;;;;16.43;13.07;;;;;;;;;;6245115;22;20210;-87
2023/12/03 14:35:12;;;;;;;19.43;15.33;;;;;;;;;;6243182;22;20257;-86
2023/12/03 14:37:41;;;;;;;21.60;17.40;;;;;;;;;;6243654;22;20196;-85
2023/12/03 14:40:13;;;;;;;22.33;20.03;;;;;;;;;;6243323;22;20205;-86
2023/12/03 14:42:43;;;;;;;17.83;15.77;;;;;;;;;;6243691;22;20189;-87
2023/12/03 14:45:12;;;;;;;18.43;13.07;;;;;;;;;;6242625;22;20170;-87
2023/12/03 14:47:41;;;;;;;20.37;17.47;;;;;;;;;;6243868;22;20182;-86
2023/12/03 14:50:10;;;;;;;19.50;16.93;;;;;;;;;;6244640;22;20187;-86
2023/12/03 14:52:40;;;;;;;21.60;16.73;;;;;;;;;;6245110;22;20176;-86